createdAt,value
2022-09-16T00:00:24.620Z,1.80
2022-09-16T00:03:13.722Z,2.10
2022-09-16T00:05:47.317Z,1.60
2022-09-16T00:08:16.197Z,1.50
2022-09-16T00:10:45.024Z,1.70
2022-09-16T00:13:15.532Z,1.30
2022-09-16T00:15:45.786Z,2.00
2022-09-16T00:18:14.966Z,2.00
2022-09-16T00:20:45.491Z,1.60
2022-09-16T00:23:13.758Z,1.70
2022-09-16T00:25:45.204Z,1.70
2022-09-16T00:28:13.515Z,1.70
2022-09-16T00:30:41.660Z,1.70
2022-09-16T00:33:12.554Z,1.70
2022-09-16T00:35:40.794Z,1.60
2022-09-16T00:38:10.022Z,1.90
2022-09-16T00:40:48.429Z,1.90
2022-09-16T00:43:20.235Z,1.70
2022-09-16T00:46:11.242Z,1.60
2022-09-16T00:48:44.834Z,1.90
2022-09-16T00:51:15.262Z,1.70
2022-09-16T00:53:52.201Z,1.80
2022-09-16T00:56:23.807Z,1.80
2022-09-16T00:59:11.081Z,1.80
2022-09-16T01:01:40.239Z,1.90
2022-09-16T01:04:16.499Z,2.00
2022-09-16T01:06:50.034Z,1.50
2022-09-16T01:09:21.127Z,1.50
2022-09-16T01:14:41.318Z,1.30
2022-09-16T01:17:30.805Z,1.60
2022-09-16T01:20:00.391Z,1.30
2022-09-16T01:22:52.093Z,1.40
2022-09-16T01:25:38.668Z,1.30
2022-09-16T01:28:46.194Z,1.50
2022-09-16T01:31:58.153Z,1.10
2022-09-16T01:35:11.081Z,1.30
2022-09-16T01:38:04.201Z,1.40
2022-09-16T01:41:00.887Z,1.10
2022-09-16T01:43:58.087Z,1.20
2022-09-16T01:46:51.540Z,1.30
2022-09-16T01:49:51.849Z,1.40
2022-09-16T01:52:35.321Z,1.20
2022-09-16T01:55:07.952Z,1.40
2022-09-16T01:58:11.037Z,1.50
2022-09-16T02:00:43.505Z,1.40
2022-09-16T02:03:15.972Z,1.50
2022-09-16T02:06:14.063Z,1.20
2022-09-16T02:09:11.348Z,1.50
2022-09-16T02:11:41.851Z,1.40
2022-09-16T02:14:16.280Z,1.90
2022-09-16T02:16:54.679Z,1.10
2022-09-16T02:19:31.992Z,1.40
2022-09-16T02:22:03.311Z,1.50
2022-09-16T02:24:34.675Z,1.20
2022-09-16T02:27:08.574Z,1.40
2022-09-16T02:29:41.785Z,1.70
2022-09-16T02:32:12.300Z,1.90
2022-09-16T02:34:44.966Z,1.60
2022-09-16T02:37:31.042Z,1.50
2022-09-16T02:40:05.274Z,1.30
2022-09-16T02:42:34.488Z,1.50
2022-09-16T02:45:04.052Z,1.80
2022-09-16T02:47:45.376Z,1.60
2022-09-16T02:50:48.374Z,1.40
2022-09-16T02:53:20.164Z,1.40
2022-09-16T02:55:59.905Z,1.40
2022-09-16T02:58:29.812Z,1.70
2022-09-16T03:00:58.841Z,1.60
2022-09-16T03:03:27.070Z,1.30
2022-09-16T03:06:19.809Z,1.30
2022-09-16T03:08:50.687Z,1.30
2022-09-16T03:11:30.455Z,1.30
2022-09-16T03:14:12.008Z,1.10
2022-09-16T03:17:18.633Z,1.00
2022-09-16T03:20:02.315Z,0.90
2022-09-16T03:23:01.291Z,1.00
2022-09-16T03:25:57.653Z,0.90
2022-09-16T03:28:55.836Z,1.10
2022-09-16T03:31:39.312Z,0.90
2022-09-16T03:34:45.546Z,1.10
2022-09-16T03:37:18.660Z,1.20
2022-09-16T03:39:54.764Z,1.20
2022-09-16T03:42:25.971Z,1.90
2022-09-16T03:44:54.515Z,1.20
2022-09-16T03:47:22.337Z,1.30
2022-09-16T03:49:51.693Z,1.40
2022-09-16T03:52:20.001Z,1.20
2022-09-16T03:54:48.145Z,1.40
2022-09-16T03:57:18.989Z,1.60
2022-09-16T03:59:47.257Z,1.60
2022-09-16T04:02:17.809Z,1.40
2022-09-16T04:04:46.330Z,1.20
2022-09-16T04:07:14.677Z,1.10
2022-09-16T04:09:43.226Z,1.20
2022-09-16T04:12:11.433Z,1.10
2022-09-16T04:14:39.622Z,1.30
2022-09-16T04:17:10.409Z,1.20
2022-09-16T04:19:38.674Z,1.30
2022-09-16T04:22:06.830Z,1.20
2022-09-16T04:24:37.637Z,1.40
2022-09-16T04:27:06.966Z,1.40
2022-09-16T04:29:34.882Z,1.40
2022-09-16T04:32:03.106Z,1.00
2022-09-16T04:34:32.660Z,1.50
2022-09-16T04:37:00.831Z,0.90
2022-09-16T04:39:30.139Z,1.20
2022-09-16T04:42:01.224Z,1.10
2022-09-16T04:46:58.681Z,1.50
2022-09-16T04:49:26.830Z,1.00
2022-09-16T04:51:57.714Z,1.60
2022-09-16T04:54:25.548Z,1.00
2022-09-16T04:56:57.832Z,1.00
2022-09-16T04:59:26.076Z,1.10
2022-09-16T05:01:54.253Z,1.20
2022-09-16T05:04:25.039Z,1.20
2022-09-16T05:06:53.283Z,1.30
2022-09-16T05:09:24.487Z,1.00
2022-09-16T05:11:52.930Z,1.60
2022-09-16T05:14:24.374Z,1.30
2022-09-16T05:16:52.216Z,1.60
2022-09-16T05:19:20.375Z,1.20
2022-09-16T05:21:48.504Z,1.40
2022-09-16T05:24:16.678Z,1.30
2022-09-16T05:26:44.578Z,1.30
2022-09-16T05:29:16.339Z,1.80
2022-09-16T05:31:48.665Z,1.50
2022-09-16T05:34:28.733Z,1.40
2022-09-16T05:36:57.617Z,1.20
2022-09-16T05:39:26.566Z,1.20
2022-09-16T05:42:00.681Z,1.80
2022-09-16T05:44:32.458Z,1.40
2022-09-16T05:47:00.377Z,1.80
2022-09-16T05:49:31.264Z,1.60
2022-09-16T05:51:59.501Z,1.90
2022-09-16T05:54:28.118Z,2.00
2022-09-16T05:57:01.259Z,1.60
2022-09-16T05:59:32.806Z,1.90
2022-09-16T06:02:01.216Z,2.10
2022-09-16T06:04:30.542Z,2.00
2022-09-16T06:07:02.234Z,2.40
2022-09-16T06:09:30.503Z,2.20
2022-09-16T06:12:02.201Z,2.20
2022-09-16T06:14:30.504Z,2.00
2022-09-16T06:16:58.420Z,1.70
2022-09-16T06:19:29.557Z,2.30
2022-09-16T06:21:57.811Z,1.70
2022-09-16T06:24:25.625Z,1.30
2022-09-16T06:26:54.730Z,1.80
2022-09-16T06:29:23.029Z,1.70
2022-09-16T06:31:51.221Z,1.90
2022-09-16T06:34:20.415Z,1.90
2022-09-16T06:36:48.581Z,1.20
2022-09-16T06:39:20.497Z,1.00
2022-09-16T06:41:53.701Z,1.60
2022-09-16T06:44:24.208Z,1.70
2022-09-16T06:46:52.348Z,1.40
2022-09-16T06:49:20.739Z,1.60
2022-09-16T06:51:48.562Z,1.40
2022-09-16T06:54:17.977Z,1.20
2022-09-16T06:56:46.566Z,1.50
2022-09-16T06:59:17.270Z,1.30
2022-09-16T07:01:45.411Z,1.50
2022-09-16T07:04:16.364Z,1.40
2022-09-16T07:09:34.629Z,2.00
2022-09-16T07:12:03.814Z,1.10
2022-09-16T07:14:35.234Z,1.30
2022-09-16T07:17:03.613Z,1.90
2022-09-16T07:19:35.383Z,1.60
2022-09-16T07:22:03.761Z,1.50
2022-09-16T07:24:32.045Z,1.20
2022-09-16T07:27:00.257Z,1.30
2022-09-16T07:29:28.784Z,1.50
2022-09-16T07:31:57.026Z,1.30
2022-09-16T07:34:25.207Z,1.40
2022-09-16T07:36:53.129Z,1.00
2022-09-16T07:39:21.422Z,0.90
2022-09-16T07:41:49.882Z,1.10
2022-09-16T07:44:21.204Z,1.50
2022-09-16T07:46:51.352Z,1.30
2022-09-16T07:49:20.576Z,0.90
2022-09-16T07:51:52.069Z,1.20
2022-09-16T07:54:20.340Z,1.20
2022-09-16T07:56:49.251Z,1.00
2022-09-16T07:59:19.639Z,1.20
2022-09-16T08:01:49.933Z,0.90
2022-09-16T08:04:20.426Z,1.40
2022-09-16T08:06:49.875Z,1.00
2022-09-16T08:12:08.146Z,1.20
2022-09-16T08:14:36.889Z,1.20
2022-09-16T08:17:05.249Z,1.00
2022-09-16T08:19:33.220Z,1.20
2022-09-16T08:22:01.727Z,0.90
2022-09-16T08:24:30.149Z,0.90
2022-09-16T08:26:58.379Z,0.70
2022-09-16T08:29:27.241Z,1.30
2022-09-16T08:31:57.103Z,1.00
2022-09-16T08:34:25.448Z,1.20
2022-09-16T08:36:53.631Z,1.40
2022-09-16T08:39:24.530Z,1.30
2022-09-16T08:42:35.556Z,1.40
2022-09-16T08:45:35.842Z,1.50
2022-09-16T08:48:17.423Z,1.30
2022-09-16T08:50:47.463Z,1.20
2022-09-16T08:54:00.136Z,1.50
2022-09-16T08:56:34.569Z,4.90
2022-09-16T08:59:13.567Z,2.20
2022-09-16T09:02:03.910Z,1.20
2022-09-16T09:04:35.081Z,1.40
2022-09-16T09:07:52.005Z,0.90
2022-09-16T09:10:39.950Z,1.20
2022-09-16T09:13:43.983Z,1.20
2022-09-16T09:16:53.182Z,1.10
2022-09-16T09:20:01.323Z,0.80
2022-09-16T09:23:43.351Z,1.10
2022-09-16T09:26:36.704Z,0.70
2022-09-16T09:29:43.943Z,1.00
2022-09-16T09:32:48.614Z,0.80
2022-09-16T09:35:25.203Z,1.00
2022-09-16T09:38:07.431Z,1.00
2022-09-16T09:40:48.757Z,1.60
2022-09-16T09:43:28.712Z,1.00
2022-09-16T09:46:03.513Z,1.20
2022-09-16T09:48:43.177Z,1.00
2022-09-16T09:51:38.103Z,1.10
2022-09-16T09:54:30.059Z,1.30
2022-09-16T09:57:02.902Z,1.50
2022-09-16T09:59:48.809Z,1.70
2022-09-16T10:02:19.426Z,1.00
2022-09-16T10:04:48.585Z,1.90
2022-09-16T10:07:21.142Z,1.20
2022-09-16T10:09:59.258Z,1.20
2022-09-16T10:12:36.417Z,1.20
2022-09-16T10:15:06.534Z,1.50
2022-09-16T10:17:34.552Z,1.90
2022-09-16T10:20:29.301Z,1.60
2022-09-16T10:23:13.654Z,1.40
2022-09-16T10:25:44.399Z,1.10
2022-09-16T10:28:26.082Z,1.80
2022-09-16T10:30:58.877Z,1.00
2022-09-16T10:33:44.936Z,0.90
2022-09-16T10:36:20.860Z,1.10
2022-09-16T10:39:04.691Z,0.90
2022-09-16T10:41:48.103Z,0.90
2022-09-16T10:44:23.832Z,0.90
2022-09-16T10:47:07.246Z,1.00
2022-09-16T10:49:51.577Z,0.80
2022-09-16T10:52:23.902Z,0.70
2022-09-16T10:54:52.621Z,1.00
2022-09-16T10:57:29.159Z,1.10
2022-09-16T11:00:16.308Z,1.10
2022-09-16T11:03:23.748Z,1.00
2022-09-16T11:06:29.857Z,1.20
2022-09-16T11:09:43.563Z,1.00
2022-09-16T11:12:30.296Z,0.80
2022-09-16T11:15:29.131Z,1.00
2022-09-16T11:18:38.231Z,1.30
2022-09-16T11:21:21.094Z,1.20
2022-09-16T11:24:08.543Z,0.80
2022-09-16T11:27:25.590Z,1.00
2022-09-16T11:30:33.607Z,0.80
2022-09-16T11:33:11.931Z,1.00
2022-09-16T11:36:28.320Z,1.00
2022-09-16T11:39:25.989Z,1.30
2022-09-16T11:42:21.328Z,1.00
2022-09-16T11:45:37.714Z,1.10
2022-09-16T11:48:38.831Z,1.00
2022-09-16T11:51:31.116Z,0.90
2022-09-16T11:54:46.425Z,1.10
2022-09-16T11:57:19.152Z,1.10
2022-09-16T12:00:01.739Z,0.60
2022-09-16T12:03:20.142Z,0.70
2022-09-16T12:05:54.844Z,0.60
2022-09-16T12:08:30.457Z,0.90
2022-09-16T12:11:36.656Z,1.10
2022-09-16T12:14:19.581Z,0.80
2022-09-16T12:16:51.013Z,0.60
2022-09-16T12:19:26.073Z,0.60
2022-09-16T12:22:05.169Z,1.00
2022-09-16T12:25:03.798Z,0.80
2022-09-16T12:27:55.156Z,0.80
2022-09-16T12:33:26.421Z,0.80
2022-09-16T12:36:19.099Z,0.60
2022-09-16T12:38:52.747Z,0.70
2022-09-16T12:42:02.223Z,1.10
2022-09-16T12:44:57.337Z,0.70
2022-09-16T12:48:10.329Z,0.80
2022-09-16T12:51:11.108Z,0.90
2022-09-16T12:54:21.525Z,1.40
2022-09-16T12:57:12.699Z,3.80
2022-09-16T13:00:11.931Z,2.40
2022-09-16T13:02:52.984Z,4.20
2022-09-16T13:08:09.104Z,1.10
2022-09-16T13:11:16.496Z,0.40
2022-09-16T13:13:52.698Z,0.50
2022-09-16T13:16:37.245Z,0.80
2022-09-16T13:19:27.524Z,0.70
2022-09-16T13:21:59.223Z,0.50
2022-09-16T13:24:38.201Z,0.90
2022-09-16T13:27:27.380Z,0.70
2022-09-16T13:30:28.166Z,0.90
2022-09-16T13:33:01.919Z,0.70
2022-09-16T13:35:45.305Z,0.90
2022-09-16T13:38:24.487Z,0.90
2022-09-16T13:41:00.411Z,0.70
2022-09-16T13:43:37.423Z,0.80
2022-09-16T13:46:26.178Z,0.90
2022-09-16T13:49:11.240Z,0.80
2022-09-16T13:51:46.800Z,0.70
2022-09-16T13:55:06.166Z,0.90
2022-09-16T13:58:01.120Z,1.00
2022-09-16T14:00:48.179Z,1.10
2022-09-16T14:03:43.510Z,0.80
2022-09-16T14:06:50.088Z,0.90
2022-09-16T14:09:58.986Z,0.70
2022-09-16T14:12:39.654Z,0.60
2022-09-16T14:15:49.575Z,0.80
2022-09-16T14:18:25.778Z,0.80
2022-09-16T14:21:17.838Z,1.10
2022-09-16T14:23:45.652Z,0.60
2022-09-16T14:26:22.611Z,0.60
2022-09-16T14:29:02.574Z,0.50
2022-09-16T14:31:34.286Z,0.40
2022-09-16T14:34:07.696Z,0.40
2022-09-16T14:37:02.658Z,0.50
2022-09-16T14:39:33.958Z,0.40
2022-09-16T14:42:07.391Z,0.50
2022-09-16T14:44:40.827Z,0.80
2022-09-16T14:47:53.415Z,1.10
2022-09-16T14:50:25.626Z,0.70
2022-09-16T14:53:01.546Z,0.40
2022-09-16T14:55:40.373Z,1.40
2022-09-16T14:58:11.933Z,1.70
2022-09-16T15:00:55.050Z,1.30
2022-09-16T15:03:27.197Z,3.40
2022-09-16T15:05:59.945Z,1.30
2022-09-16T15:08:47.736Z,0.70
2022-09-16T15:11:43.554Z,1.00
2022-09-16T15:14:09.989Z,0.70
2022-09-16T15:16:48.715Z,0.50
2022-09-16T15:19:39.751Z,0.40
2022-09-16T15:22:13.632Z,0.60
2022-09-16T15:24:42.462Z,0.50
2022-09-16T15:27:10.876Z,1.20
2022-09-16T15:29:49.558Z,0.50
2022-09-16T15:32:24.261Z,1.40
2022-09-16T15:35:29.706Z,0.30
2022-09-16T15:38:12.945Z,0.50
2022-09-16T15:40:41.404Z,0.60
2022-09-16T15:43:28.052Z,0.50
2022-09-16T15:46:09.302Z,0.60
2022-09-16T15:48:45.936Z,0.40
2022-09-16T15:51:47.993Z,1.90
2022-09-16T15:54:31.781Z,0.90
2022-09-16T15:57:04.962Z,0.50
2022-09-16T15:59:54.577Z,1.40
2022-09-16T16:02:32.939Z,0.70
2022-09-16T16:05:18.057Z,0.80
2022-09-16T16:07:49.999Z,0.40
2022-09-16T16:10:24.039Z,1.00
2022-09-16T16:12:54.779Z,0.30
2022-09-16T16:15:29.551Z,1.10
2022-09-16T16:18:05.161Z,1.20
2022-09-16T16:20:36.734Z,0.70
2022-09-16T16:23:10.116Z,1.10
2022-09-16T16:25:41.173Z,1.50
2022-09-16T16:28:09.123Z,1.40
2022-09-16T16:30:36.952Z,1.40
2022-09-16T16:33:07.853Z,1.40
2022-09-16T16:35:38.479Z,1.60
2022-09-16T16:38:09.151Z,1.10
2022-09-16T16:41:01.885Z,1.20
2022-09-16T16:43:30.164Z,1.70
2022-09-16T16:45:58.592Z,1.20
2022-09-16T16:48:28.608Z,1.20
2022-09-16T16:51:05.221Z,1.60
2022-09-16T16:53:33.532Z,1.90
2022-09-16T16:56:14.819Z,1.80
2022-09-16T16:59:09.299Z,1.10
2022-09-16T17:01:38.355Z,1.20
2022-09-16T17:04:10.300Z,1.40
2022-09-16T17:06:40.399Z,1.20
2022-09-16T17:09:14.963Z,1.20
2022-09-16T17:11:58.120Z,1.20
2022-09-16T17:14:29.536Z,1.50
2022-09-16T17:16:57.798Z,1.50
2022-09-16T17:19:27.464Z,1.50
2022-09-16T17:21:56.002Z,1.20
2022-09-16T17:24:24.259Z,1.40
2022-09-16T17:26:52.478Z,1.00
2022-09-16T17:29:20.356Z,1.10
2022-09-16T17:31:48.572Z,1.20
2022-09-16T17:34:19.508Z,1.30
2022-09-16T17:36:47.827Z,1.70
2022-09-16T17:39:22.012Z,1.20
2022-09-16T17:41:54.841Z,1.30
2022-09-16T17:44:23.254Z,1.50
2022-09-16T17:46:51.290Z,1.60
2022-09-16T17:49:23.895Z,1.80
2022-09-16T17:51:53.725Z,1.90
2022-09-16T17:54:22.909Z,2.00
2022-09-16T17:56:52.206Z,2.30
2022-09-16T17:59:20.269Z,2.20
2022-09-16T18:01:49.325Z,2.40
2022-09-16T18:04:17.409Z,2.10
2022-09-16T18:06:47.017Z,2.00
2022-09-16T18:09:18.533Z,1.60
2022-09-16T18:11:46.952Z,1.80
2022-09-16T18:14:17.260Z,2.00
2022-09-16T18:16:51.992Z,2.30
2022-09-16T18:19:20.302Z,2.20
2022-09-16T18:21:48.947Z,2.60
2022-09-16T18:24:21.066Z,2.70
2022-09-16T18:26:51.605Z,3.30
2022-09-16T18:29:20.022Z,2.20
2022-09-16T18:31:50.026Z,2.50
2022-09-16T18:34:18.628Z,2.10
2022-09-16T18:36:46.830Z,2.30
2022-09-16T18:39:18.446Z,2.00
2022-09-16T18:41:46.720Z,2.00
2022-09-16T18:44:21.475Z,2.50
2022-09-16T18:46:50.199Z,2.00
2022-09-16T18:49:20.675Z,2.40
2022-09-16T18:51:52.478Z,2.60
2022-09-16T18:54:31.081Z,2.40
2022-09-16T18:57:02.549Z,7.60
2022-09-16T18:59:34.555Z,12.00
2022-09-16T19:02:03.942Z,2.70
2022-09-16T19:04:33.715Z,2.80
2022-09-16T19:07:08.329Z,2.30
2022-09-16T19:09:40.809Z,2.10
2022-09-16T19:12:11.233Z,2.00
2022-09-16T19:14:41.183Z,2.00
2022-09-16T19:17:10.434Z,2.10
2022-09-16T19:19:39.477Z,2.80
2022-09-16T19:22:08.188Z,2.30
2022-09-16T19:24:37.594Z,4.30
2022-09-16T19:27:05.711Z,2.70
2022-09-16T19:29:33.943Z,2.80
2022-09-16T19:32:05.272Z,2.90
2022-09-16T19:34:33.555Z,2.60
2022-09-16T19:37:01.706Z,2.40
2022-09-16T19:39:29.754Z,2.20
2022-09-16T19:42:03.226Z,2.20
2022-09-16T19:44:31.157Z,9.40
2022-09-16T19:46:59.298Z,3.10
2022-09-16T19:49:27.512Z,2.30
2022-09-16T19:51:55.735Z,2.40
2022-09-16T19:54:24.506Z,2.40
2022-09-16T19:56:52.764Z,2.40
2022-09-16T19:59:21.267Z,2.50
2022-09-16T20:01:50.176Z,2.80
2022-09-16T20:04:21.732Z,3.20
2022-09-16T20:06:53.038Z,3.60
2022-09-16T20:09:21.111Z,2.60
2022-09-16T20:11:49.614Z,2.90
2022-09-16T20:14:20.115Z,2.20
2022-09-16T20:16:50.286Z,2.50
2022-09-16T20:19:20.628Z,2.50
2022-09-16T20:21:49.194Z,2.20
2022-09-16T20:24:37.658Z,3.10
2022-09-16T20:27:09.429Z,2.30
2022-09-16T20:29:37.237Z,2.00
2022-09-16T20:32:05.924Z,1.90
2022-09-16T20:34:34.194Z,1.90
2022-09-16T20:37:05.155Z,1.60
2022-09-16T20:39:33.480Z,1.70
2022-09-16T20:42:03.050Z,2.20
2022-09-16T20:44:31.258Z,2.40
2022-09-16T20:46:59.100Z,2.20
2022-09-16T20:49:26.992Z,1.80
2022-09-16T20:51:55.209Z,2.20
2022-09-16T20:54:26.078Z,1.90
2022-09-16T20:56:54.187Z,1.90
2022-09-16T20:59:22.725Z,2.20
2022-09-16T21:01:50.847Z,2.50
2022-09-16T21:04:20.477Z,1.70
2022-09-16T21:06:48.784Z,1.70
2022-09-16T21:09:19.245Z,2.00
2022-09-16T21:11:48.216Z,1.90
2022-09-16T21:14:17.448Z,1.80
2022-09-16T21:16:49.659Z,1.90
2022-09-16T21:19:17.991Z,2.30
2022-09-16T21:21:48.672Z,2.10
2022-09-16T21:24:20.282Z,1.90
2022-09-16T21:29:21.513Z,2.00
2022-09-16T21:31:50.633Z,1.80
2022-09-16T21:34:21.286Z,1.70
2022-09-16T21:36:50.774Z,4.40
2022-09-16T21:39:20.843Z,3.50
2022-09-16T21:41:48.965Z,2.30
2022-09-16T21:44:17.761Z,2.10
2022-09-16T21:46:46.459Z,2.40
2022-09-16T21:49:25.605Z,2.30
2022-09-16T21:51:57.728Z,2.20
2022-09-16T21:54:26.817Z,1.80
2022-09-16T21:56:54.684Z,2.70
2022-09-16T21:59:23.701Z,2.80
2022-09-16T22:01:52.622Z,2.20
2022-09-16T22:04:23.928Z,2.10
2022-09-16T22:06:55.270Z,2.40
2022-09-16T22:09:24.470Z,2.10
2022-09-16T22:11:52.741Z,2.20
2022-09-16T22:14:20.528Z,2.20
2022-09-16T22:16:51.463Z,2.10
2022-09-16T22:19:19.569Z,2.10
2022-09-16T22:21:50.043Z,2.40
2022-09-16T22:24:21.842Z,2.50
2022-09-16T22:26:52.240Z,1.90
2022-09-16T22:29:20.447Z,1.90
2022-09-16T22:31:52.334Z,2.20
2022-09-16T22:34:20.827Z,1.90
2022-09-16T22:36:49.383Z,1.90
2022-09-16T22:39:19.857Z,1.50
2022-09-16T22:41:48.051Z,1.70
2022-09-16T22:44:16.334Z,1.70
2022-09-16T22:46:46.494Z,3.50
2022-09-16T22:49:15.969Z,8.50
2022-09-16T22:51:44.483Z,5.50
2022-09-16T22:54:14.135Z,4.00
2022-09-16T22:56:45.099Z,2.20
2022-09-16T22:59:18.158Z,1.90
2022-09-16T23:01:49.661Z,1.60
2022-09-16T23:04:18.318Z,2.00
2022-09-16T23:06:46.895Z,1.80
2022-09-16T23:09:17.835Z,1.70
2022-09-16T23:11:46.097Z,2.30
2022-09-16T23:14:24.874Z,5.30
2022-09-16T23:16:54.424Z,4.20
2022-09-16T23:19:25.407Z,5.70
2022-09-16T23:21:54.253Z,3.80
2022-09-16T23:24:23.288Z,6.50
2022-09-16T23:26:51.647Z,7.20
2022-09-16T23:29:19.891Z,5.50
2022-09-16T23:31:48.214Z,3.30
2022-09-16T23:34:19.275Z,2.60
2022-09-16T23:36:48.344Z,3.20
2022-09-16T23:39:18.140Z,2.70
2022-09-16T23:41:46.996Z,2.60
2022-09-16T23:44:16.235Z,2.10
2022-09-16T23:46:44.577Z,1.80
2022-09-16T23:49:13.994Z,1.50
2022-09-16T23:51:42.201Z,1.70
2022-09-16T23:54:14.251Z,1.80
2022-09-16T23:56:42.836Z,1.80
2022-09-16T23:59:10.973Z,1.60
